createdAt,value
2022-09-17T00:00:31.435Z,1006.09
2022-09-17T00:01:31.631Z,1006.12
2022-09-17T00:02:31.489Z,1006.09
2022-09-17T00:03:31.452Z,1006.14
2022-09-17T00:04:31.452Z,1006.11
2022-09-17T00:05:31.435Z,1006.13
2022-09-17T00:06:31.462Z,1006.13
2022-09-17T00:07:31.459Z,1006.13
2022-09-17T00:08:31.439Z,1006.11
2022-09-17T00:09:31.436Z,1006.13
2022-09-17T00:10:31.435Z,1006.15
2022-09-17T00:11:31.446Z,1006.33
2022-09-17T00:12:31.498Z,1006.32
2022-09-17T00:13:31.437Z,1006.3
2022-09-17T00:14:31.432Z,1006.31
2022-09-17T00:15:31.432Z,1006.31
2022-09-17T00:16:31.473Z,1006.34
2022-09-17T00:17:31.450Z,1006.35
2022-09-17T00:18:31.448Z,1006.35
2022-09-17T00:19:31.435Z,1006.35
2022-09-17T00:20:31.452Z,1006.32
2022-09-17T00:21:31.435Z,1006.32
2022-09-17T00:22:31.466Z,1006.33
2022-09-17T00:23:31.480Z,1006.31
2022-09-17T00:24:31.459Z,1006.34
2022-09-17T00:25:31.449Z,1006.31
2022-09-17T00:26:31.461Z,1006.29
2022-09-17T00:27:31.484Z,1006.32
2022-09-17T00:28:31.449Z,1006.29
2022-09-17T00:29:31.447Z,1006.2
2022-09-17T00:30:31.459Z,1006.29
2022-09-17T00:31:31.554Z,1006.29
2022-09-17T00:32:31.469Z,1006.28
2022-09-17T00:33:31.455Z,1006.24
2022-09-17T00:34:31.445Z,1006.24
2022-09-17T00:35:31.447Z,1006.24
2022-09-17T00:36:31.455Z,1006.25
2022-09-17T00:37:31.457Z,1006.22
2022-09-17T00:38:31.448Z,1006.18
2022-09-17T00:39:31.449Z,1006.22
2022-09-17T00:40:31.550Z,1006.22
2022-09-17T00:41:31.453Z,1006.26
2022-09-17T00:42:31.489Z,1006.14
2022-09-17T00:43:31.459Z,1006.14
2022-09-17T00:44:31.460Z,1006.19
2022-09-17T00:45:31.444Z,1006.24
2022-09-17T00:46:31.552Z,1006.12
2022-09-17T00:47:31.467Z,1006.23
2022-09-17T00:48:31.461Z,1006.26
2022-09-17T00:49:31.448Z,1006.27
2022-09-17T00:50:31.453Z,1006.22
2022-09-17T00:51:31.473Z,1006.26
2022-09-17T00:52:31.461Z,1006.19
2022-09-17T00:53:31.455Z,1006.17
2022-09-17T00:54:31.459Z,1006.2
2022-09-17T00:55:31.443Z,1006.17
2022-09-17T00:56:31.446Z,1006.15
2022-09-17T00:57:31.489Z,1006.16
2022-09-17T00:58:31.457Z,1006.19
2022-09-17T00:59:31.439Z,1006.22
2022-09-17T01:00:31.503Z,1006.12
2022-09-17T01:01:31.449Z,1006.19
2022-09-17T01:02:31.476Z,1005.96
2022-09-17T01:03:31.455Z,1005.98
2022-09-17T01:04:31.446Z,1005.98
2022-09-17T01:05:31.455Z,1006
2022-09-17T01:06:31.463Z,1005.98
2022-09-17T01:07:31.465Z,1005.95
2022-09-17T01:08:31.446Z,1006.03
2022-09-17T01:09:31.448Z,1006.01
2022-09-17T01:10:31.444Z,1006.01
2022-09-17T01:11:31.445Z,1006.05
2022-09-17T01:12:31.477Z,1006.05
2022-09-17T01:13:31.451Z,1006.03
2022-09-17T01:14:31.447Z,1006.07
2022-09-17T01:15:31.450Z,1006.07
2022-09-17T01:16:31.513Z,1006.05
2022-09-17T01:17:31.448Z,1006.03
2022-09-17T01:18:31.446Z,1006.06
2022-09-17T01:19:31.452Z,1006.07
2022-09-17T01:20:31.452Z,1006.01
2022-09-17T01:21:31.441Z,1005.99
2022-09-17T01:22:31.464Z,1006
2022-09-17T01:23:31.430Z,1006.06
2022-09-17T01:24:31.434Z,1006.05
2022-09-17T01:25:31.435Z,1006
2022-09-17T01:26:31.471Z,1006.01
2022-09-17T01:27:31.470Z,1005.94
2022-09-17T01:28:31.436Z,1005.99
2022-09-17T01:29:31.436Z,1006.01
2022-09-17T01:30:31.450Z,1005.97
2022-09-17T01:31:31.478Z,1005.99
2022-09-17T01:32:31.467Z,1005.95
2022-09-17T01:33:31.431Z,1005.99
2022-09-17T01:34:31.430Z,1006.01
2022-09-17T01:35:31.431Z,1006.02
2022-09-17T01:36:31.439Z,1005.99
2022-09-17T01:37:31.448Z,1005.93
2022-09-17T01:38:31.451Z,1005.96
2022-09-17T01:39:31.466Z,1005.92
2022-09-17T01:40:31.498Z,1006.02
2022-09-17T01:41:31.450Z,1006.17
2022-09-17T01:42:31.483Z,1005.96
2022-09-17T01:43:31.451Z,1005.89
2022-09-17T01:44:31.451Z,1005.95
2022-09-17T01:45:31.451Z,1005.87
2022-09-17T01:46:31.508Z,1005.92
2022-09-17T01:47:31.468Z,1005.94
2022-09-17T01:48:31.452Z,1005.93
2022-09-17T01:49:31.450Z,1005.96
2022-09-17T01:50:31.443Z,1005.95
2022-09-17T01:51:31.451Z,1005.95
2022-09-17T01:52:31.460Z,1005.99
2022-09-17T01:53:31.450Z,1006.07
2022-09-17T01:54:31.453Z,1005.96
2022-09-17T01:55:31.452Z,1006.03
2022-09-17T01:56:31.456Z,1006
2022-09-17T01:57:31.577Z,1005.99
2022-09-17T01:58:31.457Z,1006
2022-09-17T01:59:31.461Z,1006
2022-09-17T02:00:31.549Z,1005.99
2022-09-17T02:01:31.444Z,1005.97
2022-09-17T02:02:31.546Z,1005.99
2022-09-17T02:03:31.454Z,1005.95
2022-09-17T02:04:31.448Z,1005.95
2022-09-17T02:05:31.463Z,1005.96
2022-09-17T02:06:31.461Z,1005.95
2022-09-17T02:07:31.467Z,1005.91
2022-09-17T02:08:31.447Z,1005.9
2022-09-17T02:09:31.448Z,1005.89
2022-09-17T02:10:31.457Z,1005.93
2022-09-17T02:11:31.449Z,1005.92
2022-09-17T02:12:31.486Z,1005.96
2022-09-17T02:13:31.459Z,1005.96
2022-09-17T02:14:31.454Z,1006
2022-09-17T02:15:31.461Z,1006
2022-09-17T02:16:31.501Z,1005.97
2022-09-17T02:17:31.470Z,1005.96
2022-09-17T02:18:31.446Z,1005.91
2022-09-17T02:19:31.457Z,1005.95
2022-09-17T02:20:31.450Z,1005.91
2022-09-17T02:21:31.453Z,1005.9
2022-09-17T02:22:31.481Z,1005.98
2022-09-17T02:23:31.458Z,1005.97
2022-09-17T02:24:31.442Z,1005.96
2022-09-17T02:25:31.460Z,1006.02
2022-09-17T02:26:31.451Z,1005.88
2022-09-17T02:27:31.476Z,1006.01
2022-09-17T02:28:31.448Z,1006
2022-09-17T02:29:31.466Z,1006.01
2022-09-17T02:30:31.476Z,1006.02
2022-09-17T02:31:31.463Z,1006.05
2022-09-17T02:32:31.470Z,1006.02
2022-09-17T02:33:31.433Z,1005.95
2022-09-17T02:34:31.439Z,1005.98
2022-09-17T02:35:31.439Z,1006
2022-09-17T02:36:31.440Z,1005.99
2022-09-17T02:37:31.456Z,1005.99
2022-09-17T02:38:31.438Z,1005.94
2022-09-17T02:39:31.436Z,1005.96
2022-09-17T02:40:31.516Z,1005.97
2022-09-17T02:41:31.432Z,1005.95
2022-09-17T02:42:31.472Z,1005.97
2022-09-17T02:43:31.432Z,1005.95
2022-09-17T02:44:31.448Z,1005.96
2022-09-17T02:45:31.434Z,1005.88
2022-09-17T02:46:31.493Z,1005.93
2022-09-17T02:47:31.496Z,1006.13
2022-09-17T02:48:31.452Z,1006.11
2022-09-17T02:49:31.455Z,1006.08
2022-09-17T02:50:31.451Z,1006.08
2022-09-17T02:51:31.456Z,1006.11
2022-09-17T02:52:31.470Z,1006.12
2022-09-17T02:53:31.453Z,1006.15
2022-09-17T02:54:31.457Z,1006.06
2022-09-17T02:55:31.442Z,1006.14
2022-09-17T02:56:31.449Z,1006.12
2022-09-17T02:57:31.493Z,1006.03
2022-09-17T02:58:31.450Z,1006.13
2022-09-17T02:59:31.454Z,1006.18
2022-09-17T03:00:31.514Z,1006.18
2022-09-17T03:01:31.532Z,1006.12
2022-09-17T03:02:31.465Z,1006.16
2022-09-17T03:03:31.453Z,1006.19
2022-09-17T03:04:31.456Z,1006.16
2022-09-17T03:05:31.433Z,1006.25
2022-09-17T03:06:31.466Z,1006.19
2022-09-17T03:07:31.469Z,1006.19
2022-09-17T03:08:31.458Z,1006.2
2022-09-17T03:09:31.452Z,1006.13
2022-09-17T03:10:31.450Z,1006.13
2022-09-17T03:11:31.449Z,1006.12
2022-09-17T03:12:31.480Z,1006.19
2022-09-17T03:13:31.452Z,1006.16
2022-09-17T03:14:31.452Z,1006.13
2022-09-17T03:15:31.447Z,1006.13
2022-09-17T03:16:31.481Z,1006.12
2022-09-17T03:17:31.469Z,1006.06
2022-09-17T03:18:31.461Z,1006.07
2022-09-17T03:19:31.452Z,1006.04
2022-09-17T03:20:31.451Z,1006.06
2022-09-17T03:21:31.450Z,1006.06
2022-09-17T03:22:31.492Z,1006.14
2022-09-17T03:23:31.467Z,1006.15
2022-09-17T03:24:31.450Z,1006.08
2022-09-17T03:25:31.443Z,1006.08
2022-09-17T03:26:31.452Z,1006.06
2022-09-17T03:27:31.480Z,1006.09
2022-09-17T03:28:31.446Z,1006.13
2022-09-17T03:29:31.449Z,1006.12
2022-09-17T03:30:31.432Z,1006.09
2022-09-17T03:31:31.462Z,1006.08
2022-09-17T03:32:31.465Z,1006.07
2022-09-17T03:33:31.450Z,1006.07
2022-09-17T03:34:31.455Z,1006.14
2022-09-17T03:35:31.452Z,1006.15
2022-09-17T03:36:31.444Z,1006.15
2022-09-17T03:37:33.177Z,1006.14
2022-09-17T03:38:31.446Z,1006.17
2022-09-17T03:39:31.450Z,1006.22
2022-09-17T03:40:31.483Z,1006.23
2022-09-17T03:41:31.439Z,1006.28
2022-09-17T03:42:31.478Z,1006.25
2022-09-17T03:43:31.439Z,1006.19
2022-09-17T03:44:31.440Z,1006.25
2022-09-17T03:45:31.438Z,1006.25
2022-09-17T03:46:31.469Z,1006.25
2022-09-17T03:47:31.470Z,1006.24
2022-09-17T03:48:31.433Z,1006.24
2022-09-17T03:49:31.554Z,1006.25
2022-09-17T03:50:31.435Z,1006.24
2022-09-17T03:51:31.435Z,1006.19
2022-09-17T03:52:31.450Z,1006.2
2022-09-17T03:53:31.434Z,1006.23
2022-09-17T03:54:31.451Z,1006.2
2022-09-17T03:55:31.438Z,1006.22
2022-09-17T03:56:31.455Z,1006.26
2022-09-17T03:57:31.494Z,1006.23
2022-09-17T03:58:31.458Z,1006.25
2022-09-17T03:59:31.453Z,1006.25
2022-09-17T04:00:31.433Z,1006.17
2022-09-17T04:01:31.511Z,1006.24
2022-09-17T04:02:31.600Z,1006.28
2022-09-17T04:03:31.451Z,1006.3
2022-09-17T04:04:31.446Z,1006.3
2022-09-17T04:05:31.451Z,1006.36
2022-09-17T04:06:31.457Z,1006.35
2022-09-17T04:07:31.463Z,1006.33
2022-09-17T04:08:31.447Z,1006.33
2022-09-17T04:09:33.276Z,1006.31
2022-09-17T04:10:31.436Z,1006.26
2022-09-17T04:11:31.462Z,1006.31
2022-09-17T04:12:31.487Z,1006.38
2022-09-17T04:13:31.449Z,1006.28
2022-09-17T04:14:31.535Z,1006.32
2022-09-17T04:15:31.456Z,1006.32
2022-09-17T04:16:31.547Z,1006.35
2022-09-17T04:17:31.469Z,1006.37
2022-09-17T04:18:31.450Z,1006.35
2022-09-17T04:19:31.459Z,1006.32
2022-09-17T04:20:31.437Z,1006.36
2022-09-17T04:21:31.448Z,1006.37
2022-09-17T04:22:31.462Z,1006.36
2022-09-17T04:23:31.447Z,1006.36
2022-09-17T04:24:31.453Z,1006.4
2022-09-17T04:25:31.452Z,1006.43
2022-09-17T04:26:31.457Z,1006.43
2022-09-17T04:27:31.479Z,1006.43
2022-09-17T04:28:31.451Z,1006.42
2022-09-17T04:29:31.460Z,1006.45
2022-09-17T04:30:31.464Z,1006.42
2022-09-17T04:31:31.479Z,1006.37
2022-09-17T04:32:31.474Z,1006.47
2022-09-17T04:33:31.454Z,1006.44
2022-09-17T04:34:31.448Z,1006.39
2022-09-17T04:35:31.448Z,1006.43
2022-09-17T04:36:31.457Z,1006.42
2022-09-17T04:37:31.472Z,1006.4
2022-09-17T04:38:31.460Z,1006.41
2022-09-17T04:39:31.451Z,1006.49
2022-09-17T04:40:31.506Z,1006.42
2022-09-17T04:41:31.445Z,1006.42
2022-09-17T04:42:31.468Z,1006.45
2022-09-17T04:43:31.445Z,1006.41
2022-09-17T04:44:31.449Z,1006.39
2022-09-17T04:45:31.450Z,1006.48
2022-09-17T04:46:31.587Z,1006.44
2022-09-17T04:47:31.473Z,1006.47
2022-09-17T04:48:31.449Z,1006.42
2022-09-17T04:49:31.472Z,1006.43
2022-09-17T04:50:31.433Z,1006.37
2022-09-17T04:51:31.456Z,1006.38
2022-09-17T04:52:31.473Z,1006.37
2022-09-17T04:53:31.456Z,1006.35
2022-09-17T04:54:31.452Z,1006.35
2022-09-17T04:55:31.442Z,1006.38
2022-09-17T04:56:31.439Z,1006.44
2022-09-17T04:57:31.485Z,1006.37
2022-09-17T04:58:31.439Z,1006.45
2022-09-17T04:59:31.438Z,1006.43
2022-09-17T05:00:31.434Z,1006.45
2022-09-17T05:01:31.502Z,1006.44
2022-09-17T05:02:31.570Z,1006.43
2022-09-17T05:03:31.448Z,1006.41
2022-09-17T05:04:31.439Z,1006.51
2022-09-17T05:05:31.441Z,1006.5
2022-09-17T05:06:31.431Z,1006.49
2022-09-17T05:07:31.449Z,1006.54
2022-09-17T05:08:31.433Z,1006.53
2022-09-17T05:09:31.434Z,1006.51
2022-09-17T05:10:31.432Z,1006.56
2022-09-17T05:11:31.445Z,1006.55
2022-09-17T05:12:34.441Z,1006.52
2022-09-17T05:13:31.554Z,1006.52
2022-09-17T05:14:31.462Z,1006.51
2022-09-17T05:15:31.439Z,1006.51
2022-09-17T05:16:31.529Z,1006.5
2022-09-17T05:17:31.461Z,1006.53
2022-09-17T05:18:31.449Z,1006.5
2022-09-17T05:19:31.451Z,1006.52
2022-09-17T05:20:31.431Z,1006.54
2022-09-17T05:21:31.459Z,1006.51
2022-09-17T05:22:31.472Z,1006.47
2022-09-17T05:23:31.526Z,1006.49
2022-09-17T05:24:31.459Z,1006.45
2022-09-17T05:25:31.441Z,1006.49
2022-09-17T05:26:31.448Z,1006.48
2022-09-17T05:27:31.475Z,1006.52
2022-09-17T05:28:31.470Z,1006.47
2022-09-17T05:29:31.449Z,1006.53
2022-09-17T05:30:31.436Z,1006.49
2022-09-17T05:31:31.485Z,1006.54
2022-09-17T05:32:31.473Z,1006.53
2022-09-17T05:33:31.461Z,1006.54
2022-09-17T05:34:31.453Z,1006.51
2022-09-17T05:35:31.446Z,1006.55
2022-09-17T05:36:31.466Z,1006.54
2022-09-17T05:37:31.464Z,1006.53
2022-09-17T05:38:31.436Z,1006.53
2022-09-17T05:39:31.446Z,1006.52
2022-09-17T05:40:31.543Z,1006.48
2022-09-17T05:41:31.460Z,1006.51
2022-09-17T05:42:31.484Z,1006.51
2022-09-17T05:43:31.448Z,1006.49
2022-09-17T05:44:31.451Z,1006.53
2022-09-17T05:45:31.440Z,1006.56
2022-09-17T05:46:31.518Z,1006.54
2022-09-17T05:47:31.462Z,1006.53
2022-09-17T05:48:31.461Z,1006.56
2022-09-17T05:49:31.450Z,1006.55
2022-09-17T05:50:31.432Z,1006.5
2022-09-17T05:51:31.448Z,1006.56
2022-09-17T05:52:31.469Z,1006.53
2022-09-17T05:53:31.451Z,1006.54
2022-09-17T05:54:31.451Z,1006.52
2022-09-17T05:55:31.443Z,1006.54
2022-09-17T05:56:31.448Z,1006.49
2022-09-17T05:57:31.484Z,1006.51
2022-09-17T05:58:31.448Z,1006.52
2022-09-17T05:59:31.447Z,1006.5
2022-09-17T06:00:31.439Z,1006.51
2022-09-17T06:01:31.491Z,1006.45
2022-09-17T06:02:31.488Z,1006.52
2022-09-17T06:03:31.450Z,1006.5
2022-09-17T06:04:34.736Z,1006.57
2022-09-17T06:05:31.483Z,1006.53
2022-09-17T06:06:31.451Z,1006.56
2022-09-17T06:07:31.459Z,1006.55
2022-09-17T06:08:31.453Z,1006.55
2022-09-17T06:09:31.432Z,1006.51
2022-09-17T06:10:31.438Z,1006.53
2022-09-17T06:11:31.438Z,1006.57
2022-09-17T06:12:31.481Z,1006.54
2022-09-17T06:13:31.440Z,1006.58
2022-09-17T06:14:31.437Z,1006.58
2022-09-17T06:15:31.433Z,1006.58
2022-09-17T06:16:31.526Z,1006.58
2022-09-17T06:17:31.451Z,1006.58
2022-09-17T06:18:31.433Z,1006.59
2022-09-17T06:19:31.433Z,1006.61
2022-09-17T06:20:31.463Z,1006.55
2022-09-17T06:21:31.465Z,1006.6
2022-09-17T06:22:31.470Z,1006.59
2022-09-17T06:23:31.451Z,1006.6
2022-09-17T06:24:31.433Z,1006.58
2022-09-17T06:25:31.436Z,1006.56
2022-09-17T06:26:31.452Z,1006.6
2022-09-17T06:27:31.506Z,1006.51
2022-09-17T06:28:31.447Z,1006.53
2022-09-17T06:29:31.445Z,1006.49
2022-09-17T06:30:31.441Z,1006.54
2022-09-17T06:31:31.596Z,1006.52
2022-09-17T06:32:31.464Z,1006.52
2022-09-17T06:33:31.448Z,1006.51
2022-09-17T06:34:31.448Z,1006.51
2022-09-17T06:35:31.463Z,1006.51
2022-09-17T06:36:31.450Z,1006.57
2022-09-17T06:37:31.461Z,1006.54
2022-09-17T06:38:31.459Z,1006.34
2022-09-17T06:39:31.452Z,1006.27
2022-09-17T06:40:31.578Z,1006.27
2022-09-17T06:41:31.457Z,1006.31
2022-09-17T06:42:31.482Z,1006.33
2022-09-17T06:43:31.448Z,1006.3
2022-09-17T06:44:31.448Z,1006.25
2022-09-17T06:45:31.472Z,1006.3
2022-09-17T06:46:31.511Z,1006.27
2022-09-17T06:47:31.469Z,1006.23
2022-09-17T06:48:31.449Z,1006.43
2022-09-17T06:49:31.454Z,1006.42
2022-09-17T06:50:31.441Z,1006.43
2022-09-17T06:51:31.447Z,1006.43
2022-09-17T06:52:31.471Z,1006.5
2022-09-17T06:53:31.451Z,1006.49
2022-09-17T06:54:31.453Z,1006.51
2022-09-17T06:55:31.435Z,1006.32
2022-09-17T06:56:31.452Z,1006.32
2022-09-17T06:57:31.489Z,1006.27
2022-09-17T06:58:31.459Z,1006.32
2022-09-17T06:59:31.452Z,1006.33
2022-09-17T07:00:31.463Z,1006.34
2022-09-17T07:01:31.487Z,1006.35
2022-09-17T07:02:31.537Z,1006.39
2022-09-17T07:03:31.451Z,1006.46
2022-09-17T07:04:31.449Z,1006.4
2022-09-17T07:05:31.437Z,1006.44
2022-09-17T07:06:31.450Z,1006.37
2022-09-17T07:07:31.465Z,1006.33
2022-09-17T07:08:31.449Z,1006.36
2022-09-17T07:09:31.452Z,1006.4
2022-09-17T07:10:31.433Z,1006.37
2022-09-17T07:11:31.443Z,1006.39
2022-09-17T07:12:31.485Z,1006.42
2022-09-17T07:13:31.453Z,1006.43
2022-09-17T07:14:31.459Z,1006.43
2022-09-17T07:15:31.530Z,1006.43
2022-09-17T07:16:31.549Z,1006.48
2022-09-17T07:17:31.473Z,1006.46
2022-09-17T07:18:31.457Z,1006.47
2022-09-17T07:19:31.440Z,1006.44
2022-09-17T07:20:31.433Z,1006.46
2022-09-17T07:21:31.436Z,1006.44
2022-09-17T07:22:31.453Z,1006.44
2022-09-17T07:23:31.433Z,1006.45
2022-09-17T07:24:33.006Z,1006.45
2022-09-17T07:25:31.443Z,1006.51
2022-09-17T07:26:31.437Z,1006.58
2022-09-17T07:27:31.486Z,1006.56
2022-09-17T07:28:31.437Z,1006.57
2022-09-17T07:29:31.435Z,1006.56
2022-09-17T07:30:31.433Z,1006.58
2022-09-17T07:31:31.461Z,1006.59
2022-09-17T07:32:31.449Z,1006.6
2022-09-17T07:33:31.439Z,1006.64
2022-09-17T07:34:31.438Z,1006.65
2022-09-17T07:35:31.441Z,1006.67
2022-09-17T07:36:31.435Z,1006.66
2022-09-17T07:37:31.462Z,1006.66
2022-09-17T07:38:31.459Z,1006.73
2022-09-17T07:39:31.450Z,1006.7
2022-09-17T07:40:31.474Z,1006.73
2022-09-17T07:41:31.459Z,1006.83
2022-09-17T07:42:31.491Z,1007.02
2022-09-17T07:43:31.452Z,1007.02
2022-09-17T07:44:31.446Z,1007.08
2022-09-17T07:45:31.440Z,1007.04
2022-09-17T07:46:31.485Z,1007.07
2022-09-17T07:47:31.460Z,1007.07
2022-09-17T07:48:31.439Z,1007.09
2022-09-17T07:49:31.453Z,1007.04
2022-09-17T07:50:31.459Z,1007.03
2022-09-17T07:51:31.467Z,1007.05
2022-09-17T07:52:31.472Z,1007.15
2022-09-17T07:53:31.452Z,1007.1
2022-09-17T07:54:31.451Z,1007.12
2022-09-17T07:55:31.441Z,1007.18
2022-09-17T07:56:31.446Z,1007.14
2022-09-17T07:57:31.483Z,1007.17
2022-09-17T07:58:31.485Z,1007.17
2022-09-17T07:59:31.449Z,1007.17
2022-09-17T08:00:31.439Z,1007.18
2022-09-17T08:01:31.500Z,1007.16
2022-09-17T08:02:31.576Z,1007.21
2022-09-17T08:03:31.463Z,1007.23
2022-09-17T08:04:31.455Z,1007.25
2022-09-17T08:05:31.436Z,1007.25
2022-09-17T08:06:31.455Z,1007.3
2022-09-17T08:07:31.473Z,1007.29
2022-09-17T08:08:31.456Z,1007.33
2022-09-17T08:09:31.453Z,1007.3
2022-09-17T08:10:31.443Z,1007.3
2022-09-17T08:11:52.184Z,1007.27
2022-09-17T08:12:31.473Z,1007.29
2022-09-17T08:13:31.455Z,1007.24
2022-09-17T08:14:31.449Z,1007.29
2022-09-17T08:15:31.434Z,1007.29
2022-09-17T08:16:31.593Z,1007.25
2022-09-17T08:17:31.453Z,1007.29
2022-09-17T08:18:31.451Z,1007.32
2022-09-17T08:19:31.452Z,1007.31
2022-09-17T08:20:31.434Z,1007.34
2022-09-17T08:21:31.443Z,1007.33
2022-09-17T08:22:31.469Z,1007.31
2022-09-17T08:23:31.451Z,1007.31
2022-09-17T08:24:31.454Z,1007.27
2022-09-17T08:25:31.442Z,1007.32
2022-09-17T08:26:31.444Z,1007.3
2022-09-17T08:27:31.484Z,1007.32
2022-09-17T08:28:31.449Z,1007.28
2022-09-17T08:29:35.112Z,1007.31
2022-09-17T08:30:31.438Z,1007.27
2022-09-17T08:31:31.471Z,1007.14
2022-09-17T08:32:31.464Z,1007.1
2022-09-17T08:33:31.452Z,1007.12
2022-09-17T08:34:31.511Z,1007.13
2022-09-17T08:35:31.451Z,1007.06
2022-09-17T08:36:31.452Z,1007.03
2022-09-17T08:37:31.463Z,1007.06
2022-09-17T08:38:34.568Z,1007.09
2022-09-17T08:39:31.433Z,1007
2022-09-17T08:40:31.563Z,1006.97
2022-09-17T08:41:31.434Z,1006.93
2022-09-17T08:42:31.478Z,1006.97
2022-09-17T08:43:31.434Z,1006.96
2022-09-17T08:44:31.433Z,1006.93
2022-09-17T08:45:31.437Z,1006.92
2022-09-17T08:46:31.472Z,1006.92
2022-09-17T08:47:31.462Z,1006.95
2022-09-17T08:48:31.439Z,1006.91
2022-09-17T08:49:31.501Z,1006.91
2022-09-17T08:50:31.479Z,1006.91
2022-09-17T08:51:31.445Z,1006.92
2022-09-17T08:52:31.484Z,1006.93
2022-09-17T08:53:31.441Z,1006.89
2022-09-17T08:54:31.434Z,1006.92
2022-09-17T08:55:31.511Z,1006.89
2022-09-17T08:56:31.458Z,1006.91
2022-09-17T08:57:31.490Z,1006.9
2022-09-17T08:58:31.463Z,1006.89
2022-09-17T08:59:31.591Z,1006.85
2022-09-17T09:00:31.440Z,1006.85
2022-09-17T09:01:31.495Z,1006.9
2022-09-17T09:02:31.546Z,1006.87
2022-09-17T09:03:31.457Z,1006.85
2022-09-17T09:04:31.656Z,1006.86
2022-09-17T09:05:31.453Z,1006.88
2022-09-17T09:06:31.454Z,1006.92
2022-09-17T09:07:31.466Z,1006.87
2022-09-17T09:08:31.453Z,1006.89
2022-09-17T09:09:31.797Z,1006.9
2022-09-17T09:10:31.440Z,1006.93
2022-09-17T09:11:31.533Z,1006.99
2022-09-17T09:12:31.485Z,1006.99
2022-09-17T09:13:31.447Z,1007.01
2022-09-17T09:14:31.779Z,1007.13
2022-09-17T09:15:31.433Z,1007.13
2022-09-17T09:16:31.782Z,1007.14
2022-09-17T09:17:31.472Z,1007.2
2022-09-17T09:18:31.450Z,1007.18
2022-09-17T09:19:31.448Z,1007.22
2022-09-17T09:20:31.439Z,1007.19
2022-09-17T09:21:31.450Z,1007.23
2022-09-17T09:22:31.466Z,1007.2
2022-09-17T09:23:31.447Z,1007.24
2022-09-17T09:24:31.453Z,1007.18
2022-09-17T09:25:31.439Z,1007.19
2022-09-17T09:26:31.454Z,1007.19
2022-09-17T09:27:31.480Z,1007.24
2022-09-17T09:28:31.458Z,1007.19
2022-09-17T09:29:31.515Z,1007.09
2022-09-17T09:30:31.433Z,1007.12
2022-09-17T09:31:31.530Z,1007.14
2022-09-17T09:32:31.469Z,1007.18
2022-09-17T09:33:31.448Z,1007.18
2022-09-17T09:34:31.440Z,1007.18
2022-09-17T09:35:31.438Z,1007.2
2022-09-17T09:36:31.453Z,1007.18
2022-09-17T09:37:31.465Z,1007.2
2022-09-17T09:38:31.441Z,1007.18
2022-09-17T09:39:36.253Z,1007.17
2022-09-17T09:40:31.525Z,1007.19
2022-09-17T09:41:31.439Z,1007.18
2022-09-17T09:42:31.471Z,1007.16
2022-09-17T09:43:52.720Z,1007.2
2022-09-17T09:44:31.450Z,1007.23
2022-09-17T09:45:31.546Z,1007.2
2022-09-17T09:46:31.541Z,1007.19
2022-09-17T09:47:31.467Z,1007.21
2022-09-17T09:48:31.454Z,1007.24
2022-09-17T09:49:31.459Z,1007.26
2022-09-17T09:50:48.434Z,1007.25
2022-09-17T09:51:31.457Z,1007.28
2022-09-17T09:52:31.524Z,1007.41
2022-09-17T09:53:31.441Z,1007.4
2022-09-17T09:54:31.435Z,1007.47
2022-09-17T09:55:31.441Z,1007.48
2022-09-17T09:56:31.441Z,1007.53
2022-09-17T09:57:31.551Z,1007.47
2022-09-17T09:58:31.441Z,1007.45
2022-09-17T09:59:31.444Z,1007.49
2022-09-17T10:00:31.436Z,1007.51
2022-09-17T10:01:31.600Z,1007.5
2022-09-17T10:02:31.586Z,1007.45
2022-09-17T10:03:31.443Z,1007.42
2022-09-17T10:04:31.439Z,1007.43
2022-09-17T10:05:31.439Z,1007.43
2022-09-17T10:06:31.433Z,1007.43
2022-09-17T10:07:31.441Z,1007.5
2022-09-17T10:08:31.433Z,1007.55
2022-09-17T10:09:31.446Z,1007.47
2022-09-17T10:10:31.514Z,1007.42
2022-09-17T10:11:31.455Z,1007.43
2022-09-17T10:12:31.490Z,1007.4
2022-09-17T10:13:31.486Z,1007.4
2022-09-17T10:14:31.457Z,1007.41
2022-09-17T10:15:31.432Z,1007.41
2022-09-17T10:16:31.545Z,1007.32
2022-09-17T10:17:31.571Z,1007.29
2022-09-17T10:18:31.449Z,1007.32
2022-09-17T10:19:31.490Z,1007.33
2022-09-17T10:20:31.447Z,1007.28
2022-09-17T10:21:31.449Z,1007.27
2022-09-17T10:22:31.470Z,1007.29
2022-09-17T10:23:31.451Z,1007.26
2022-09-17T10:24:31.448Z,1007.23
2022-09-17T10:25:31.434Z,1007.25
2022-09-17T10:26:31.463Z,1007.25
2022-09-17T10:27:31.471Z,1007.22
2022-09-17T10:28:31.453Z,1007.18
2022-09-17T10:29:31.452Z,1007.24
2022-09-17T10:30:31.436Z,1007.21
2022-09-17T10:31:31.560Z,1007.2
2022-09-17T10:32:31.466Z,1007.22
2022-09-17T10:33:31.449Z,1007.19
2022-09-17T10:34:31.447Z,1007.16
2022-09-17T10:35:31.434Z,1007.21
2022-09-17T10:36:34.746Z,1007.1
2022-09-17T10:37:31.468Z,1007.25
2022-09-17T10:38:31.455Z,1007.2
2022-09-17T10:39:31.448Z,1007.21
2022-09-17T10:40:31.570Z,1007.18
2022-09-17T10:41:31.465Z,1007.11
2022-09-17T10:42:31.489Z,1007.1
2022-09-17T10:43:31.453Z,1007.01
2022-09-17T10:44:31.449Z,1007.07
2022-09-17T10:45:31.432Z,1007
2022-09-17T10:46:31.503Z,1006.99
2022-09-17T10:47:31.466Z,1007.18
2022-09-17T10:48:31.440Z,1007.23
2022-09-17T10:49:31.457Z,1007.28
2022-09-17T10:50:31.438Z,1007.26
2022-09-17T10:51:31.452Z,1007.27
2022-09-17T10:52:31.470Z,1007.12
2022-09-17T10:53:37.255Z,1007.1
2022-09-17T10:54:35.979Z,1007.13
2022-09-17T10:55:35.972Z,1007.09
2022-09-17T10:56:35.962Z,1007.09
2022-09-17T10:57:35.986Z,1007.12
2022-09-17T10:58:39.261Z,1007.13
2022-09-17T10:59:35.967Z,1007.31
2022-09-17T11:00:35.958Z,1007.35
2022-09-17T11:01:36.081Z,1007.12
2022-09-17T11:02:36.069Z,1007.11
2022-09-17T11:03:35.956Z,1007.04
2022-09-17T11:04:35.955Z,1007.18
2022-09-17T11:05:35.936Z,1007.12
2022-09-17T11:06:35.962Z,1007.21
2022-09-17T11:07:35.974Z,1007.19
2022-09-17T11:08:35.957Z,1007.11
2022-09-17T11:09:35.957Z,1007.21
2022-09-17T11:10:35.965Z,1007.12
2022-09-17T11:11:35.955Z,1007.19
2022-09-17T11:12:35.968Z,1007.16
2022-09-17T11:13:35.951Z,1007.24
2022-09-17T11:14:35.961Z,1007.04
2022-09-17T11:15:35.960Z,1007.04
2022-09-17T11:16:36.000Z,1007.04
2022-09-17T11:17:36.029Z,1007.07
2022-09-17T11:18:35.959Z,1007.23
2022-09-17T11:19:35.947Z,1007.02
2022-09-17T11:20:35.934Z,1007.09
2022-09-17T11:21:35.947Z,1007.08
2022-09-17T11:22:35.967Z,1007.1
2022-09-17T11:23:35.958Z,1007.07
2022-09-17T11:24:35.965Z,1007.12
2022-09-17T11:25:35.938Z,1007.08
2022-09-17T11:26:35.949Z,1007.12
2022-09-17T11:27:35.961Z,1007.09
2022-09-17T11:28:35.957Z,1007.09
2022-09-17T11:29:35.945Z,1007.1
2022-09-17T11:30:35.957Z,1007.07
2022-09-17T11:31:36.000Z,1007.11
2022-09-17T11:32:35.960Z,1007.07
2022-09-17T11:33:35.953Z,1007.14
2022-09-17T11:34:35.955Z,1007.06
2022-09-17T11:35:36.030Z,1007.1
2022-09-17T11:36:35.955Z,1006.96
2022-09-17T11:37:35.955Z,1007.14
2022-09-17T11:38:35.949Z,1007.07
2022-09-17T11:39:35.944Z,1006.83
2022-09-17T11:40:36.014Z,1006.8
2022-09-17T11:41:35.958Z,1006.9
2022-09-17T11:42:35.957Z,1006.95
2022-09-17T11:43:35.949Z,1006.93
2022-09-17T11:44:35.936Z,1006.84
2022-09-17T11:45:35.939Z,1006.85
2022-09-17T11:46:35.976Z,1006.94
2022-09-17T11:47:35.959Z,1006.93
2022-09-17T11:48:35.988Z,1006.93
2022-09-17T11:49:35.933Z,1006.94
2022-09-17T11:50:35.940Z,1006.94
2022-09-17T11:51:35.967Z,1007.06
2022-09-17T11:52:35.951Z,1007.18
2022-09-17T11:53:35.945Z,1007.2
2022-09-17T11:54:35.932Z,1007.07
2022-09-17T11:55:35.933Z,1006.92
2022-09-17T11:56:35.952Z,1007
2022-09-17T11:57:35.949Z,1007.01
2022-09-17T11:58:35.955Z,1006.96
2022-09-17T11:59:35.944Z,1007.02
2022-09-17T12:00:35.934Z,1007.06
2022-09-17T12:01:35.995Z,1007.04
2022-09-17T12:02:36.056Z,1007.03
2022-09-17T12:03:35.946Z,1007.01
2022-09-17T12:04:35.943Z,1007.02
2022-09-17T12:05:35.946Z,1006.96
2022-09-17T12:06:35.946Z,1007.01
2022-09-17T12:07:35.958Z,1006.98
2022-09-17T12:08:35.940Z,1006.98